Time;durP1;ratioP1;P1;durP2;ratioP2;P2;SDS_P1;SDS_P2;PMS_P1;PMS_P2;Temp;Humidity;BMP_temperature;BMP_pressure;BME280_temperature;BME280_humidity;BME280_pressure;Samples;Min_cycle;Max_cycle;Signal;HPM_P1;HPM_P2
2024/02/01 00:00:40;;;;;;;6.53;2.70;;;8.20;99.90;;;;;;5052162;28;20165;-54
2024/02/01 00:03:06;;;;;;;7.60;3.13;;;8.20;99.90;;;;;;5052105;28;20029;-51
2024/02/01 00:05:31;;;;;;;7.40;3.33;;;8.30;99.90;;;;;;5050867;28;20068;-54
2024/02/01 00:07:57;;;;;;;6.67;3.03;;;8.30;99.90;;;;;;5051996;28;20032;-51
2024/02/01 00:10:22;;;;;;;7.07;3.07;;;8.30;99.90;;;;;;5051973;28;20028;-54
2024/02/01 00:12:48;;;;;;;6.73;3.10;;;8.30;99.90;;;;;;5051952;28;20483;-54
2024/02/01 00:15:14;;;;;;;7.33;3.03;;;8.30;99.90;;;;;;5052104;28;20425;-54
2024/02/01 00:17:39;;;;;;;9.23;3.60;;;8.20;99.90;;;;;;5051939;28;20025;-55
2024/02/01 00:20:06;;;;;;;6.30;3.00;;;8.20;99.90;;;;;;5052091;28;20059;-55
2024/02/01 00:22:32;;;;;;;7.73;3.37;;;8.20;99.90;;;;;;5051935;28;20075;-54
2024/02/01 00:24:59;;;;;;;9.23;3.30;;;8.30;99.90;;;;;;5051800;28;20446;-55
2024/02/01 00:27:25;;;;;;;8.77;3.10;;;8.30;99.90;;;;;;5051907;28;20068;-50
2024/02/01 00:29:50;;;;;;;6.97;3.50;;;8.30;99.90;;;;;;5050533;28;20091;-54
2024/02/01 00:32:16;;;;;;;8.43;3.90;;;8.30;99.90;;;;;;5051907;28;20028;-51
2024/02/01 00:34:45;;;;;;;7.10;3.33;;;8.40;99.90;;;;;;5050563;28;20608;-54
2024/02/01 00:37:11;;;;;;;8.85;3.90;;;8.40;99.90;;;;;;5051795;28;20029;-55
2024/02/01 00:39:37;;;;;;;10.90;4.67;;;8.30;99.90;;;;;;5051688;28;20035;-53
2024/02/01 00:42:02;;;;;;;8.50;3.90;;;8.40;99.90;;;;;;5051799;28;20032;-54
2024/02/01 00:44:28;;;;;;;10.37;4.30;;;8.40;99.90;;;;;;5051854;28;20040;-54
2024/02/01 00:46:54;;;;;;;13.57;4.40;;;8.30;99.90;;;;;;5050285;28;20086;-53
2024/02/01 00:49:19;;;;;;;12.13;4.67;;;8.30;99.90;;;;;;5050688;28;20382;-52
2024/02/01 00:51:45;;;;;;;10.43;4.83;;;8.20;99.90;;;;;;5051808;28;20025;-54
2024/02/01 00:54:11;;;;;;;12.53;4.90;;;8.10;99.90;;;;;;5051640;28;20024;-53
2024/02/01 00:56:36;;;;;;;10.70;5.30;;;8.10;99.90;;;;;;5051504;28;20029;-55
2024/02/01 00:59:02;;;;;;;12.30;4.93;;;8.00;99.90;;;;;;5051598;28;20025;-54
2024/02/01 01:01:27;;;;;;;9.83;5.00;;;8.00;99.90;;;;;;5054554;28;20071;-51
2024/02/01 01:03:54;;;;;;;11.27;5.33;;;7.90;99.90;;;;;;5055444;28;20033;-55
2024/02/01 01:06:20;;;;;;;12.10;5.53;;;7.90;99.90;;;;;;5055408;28;20037;-54
2024/02/01 01:08:46;;;;;;;12.77;5.03;;;7.90;99.90;;;;;;5055409;28;20401;-54
2024/02/01 01:11:11;;;;;;;14.33;6.33;;;7.80;99.90;;;;;;5055178;28;20079;-55
2024/02/01 01:13:37;;;;;;;14.23;5.40;;;7.80;99.90;;;;;;5055223;28;20505;-55
2024/02/01 01:16:03;;;;;;;9.67;5.20;;;7.70;99.90;;;;;;5055089;28;20115;-54
2024/02/01 01:18:28;;;;;;;15.63;5.80;;;7.70;99.90;;;;;;5053865;28;20102;-54
2024/02/01 01:20:57;;;;;;;11.80;5.43;;;7.80;99.90;;;;;;5055126;28;20032;-53
2024/02/01 01:23:23;;;;;;;12.68;5.45;;;7.90;99.90;;;;;;5055168;28;20040;-54
2024/02/01 01:25:48;;;;;;;10.57;5.00;;;7.80;99.90;;;;;;5055210;28;20036;-54
2024/02/01 01:28:14;;;;;;;12.03;5.70;;;7.80;99.90;;;;;;5054851;28;20362;-54
2024/02/01 01:30:39;;;;;;;15.03;6.07;;;7.80;99.90;;;;;;5054998;28;20099;-54
2024/02/01 01:33:05;;;;;;;17.73;5.43;;;7.70;99.90;;;;;;5053702;28;20437;-50
2024/02/01 01:35:30;;;;;;;10.37;5.13;;;7.70;99.90;;;;;;5055030;28;20033;-54
2024/02/01 01:37:56;;;;;;;13.57;5.50;;;7.80;99.90;;;;;;5054710;28;20071;-54
2024/02/01 01:40:23;;;;;;;12.43;5.37;;;7.80;99.90;;;;;;5054830;28;20417;-54
2024/02/01 01:42:48;;;;;;;11.43;5.70;;;7.80;99.90;;;;;;5054513;28;20033;-54
2024/02/01 01:45:15;;;;;;;14.33;6.20;;;7.70;99.90;;;;;;5054853;28;20494;-52
2024/02/01 01:47:40;;;;;;;11.37;5.97;;;7.70;99.90;;;;;;5054547;28;20604;-53
2024/02/01 01:50:06;;;;;;;13.23;5.60;;;7.60;99.90;;;;;;5054865;28;20033;-51
2024/02/01 01:52:34;;;;;;;12.13;5.83;;;7.70;99.90;;;;;;5054521;28;20115;-50
2024/02/01 01:55:00;;;;;;;15.07;6.30;;;7.70;99.90;;;;;;5054485;28;20374;-50
2024/02/01 01:57:29;;;;;;;16.00;6.80;;;7.70;99.90;;;;;;5054395;28;20036;-51
2024/02/01 01:59:56;;;;;;;13.30;6.00;;;7.70;99.90;;;;;;5054461;28;20432;-51
2024/02/01 02:02:23;;;;;;;13.03;5.87;;;7.80;99.90;;;;;;5054561;28;20390;-50
2024/02/01 02:04:51;;;;;;;10.87;5.23;;;7.80;99.90;;;;;;5054607;28;20109;-54
2024/02/01 02:07:16;;;;;;;11.40;5.43;;;7.80;99.90;;;;;;5054292;28;20409;-54
2024/02/01 02:09:42;;;;;;;10.40;5.53;;;7.80;99.90;;;;;;5054338;28;20033;-53
2024/02/01 02:12:10;;;;;;;10.70;5.10;;;7.80;99.90;;;;;;5053876;28;20029;-51
2024/02/01 02:14:36;;;;;;;10.17;4.80;;;7.70;99.90;;;;;;5054002;28;20048;-50
2024/02/01 02:17:05;;;;;;;10.00;5.53;;;7.80;99.90;;;;;;5054249;28;20025;-54
2024/02/01 02:19:30;;;;;;;10.90;4.90;;;7.80;99.90;;;;;;5054008;28;20462;-51
2024/02/01 02:21:57;;;;;;;8.00;4.70;;;7.80;99.90;;;;;;5053964;28;20033;-54
2024/02/01 02:24:23;;;;;;;9.43;4.47;;;7.70;99.90;;;;;;5053836;28;20072;-54
2024/02/01 02:26:49;;;;;;;14.23;4.90;;;7.70;99.90;;;;;;5052555;28;20037;-54
2024/02/01 02:29:16;;;;;;;8.57;4.43;;;7.70;99.90;;;;;;5053938;28;20045;-53
2024/02/01 02:31:42;;;;;;;11.90;5.13;;;7.70;99.90;;;;;;5053955;28;20041;-54
2024/02/01 02:34:08;;;;;;;10.33;5.53;;;7.70;99.90;;;;;;5053691;28;20037;-50
2024/02/01 02:36:34;;;;;;;9.67;6.07;;;7.80;99.90;;;;;;5053627;28;20028;-53
2024/02/01 02:39:00;;;;;;;11.70;5.13;;;7.80;99.90;;;;;;5053670;28;20430;-52
2024/02/01 02:41:26;;;;;;;11.33;5.70;;;7.80;99.90;;;;;;5053761;28;20083;-51
2024/02/01 02:43:53;;;;;;;8.30;4.90;;;7.80;99.90;;;;;;5053592;28;20037;-54
2024/02/01 02:46:18;;;;;;;12.20;5.53;;;7.80;99.90;;;;;;5053570;28;20123;-52
2024/02/01 02:48:44;;;;;;;10.53;5.13;;;7.70;99.90;;;;;;5053480;28;20041;-50
2024/02/01 02:51:11;;;;;;;8.83;4.90;;;7.80;99.90;;;;;;5053400;28;20078;-53
2024/02/01 02:53:37;;;;;;;14.20;6.07;;;7.80;99.90;;;;;;5053353;28;20032;-50
2024/02/01 02:56:06;;;;;;;12.07;5.57;;;7.80;99.90;;;;;;5053407;28;20108;-53
2024/02/01 02:58:34;;;;;;;14.00;5.63;;;7.80;99.90;;;;;;5053386;28;20466;-54
2024/02/01 03:00:59;;;;;;;12.80;6.83;;;7.80;99.90;;;;;;5053286;28;20033;-50
2024/02/01 03:03:25;;;;;;;12.10;6.07;;;7.80;99.90;;;;;;5053203;28;20040;-53
2024/02/01 03:05:50;;;;;;;11.67;6.40;;;7.80;99.90;;;;;;5053311;28;20118;-51
2024/02/01 03:08:16;;;;;;;12.50;6.87;;;7.80;99.90;;;;;;5053147;28;20047;-49
2024/02/01 03:10:42;;;;;;;14.77;6.63;;;7.90;99.90;;;;;;5053052;28;20500;-53
2024/02/01 03:13:10;;;;;;;12.17;6.30;;;7.90;99.90;;;;;;5053107;28;20037;-49
2024/02/01 03:15:38;;;;;;;14.50;6.67;;;7.90;99.90;;;;;;5052955;28;20062;-50
2024/02/01 03:18:05;;;;;;;15.87;6.53;;;8.00;99.90;;;;;;5052422;28;20033;-52
2024/02/01 03:20:32;;;;;;;12.53;6.50;;;8.00;99.90;;;;;;5052773;28;20025;-53
2024/02/01 03:22:58;;;;;;;10.83;5.80;;;8.00;99.90;;;;;;5051703;28;20033;-54
2024/02/01 03:25:28;;;;;;;11.77;6.10;;;8.00;99.90;;;;;;5052442;28;20041;-51
2024/02/01 03:28:13;;;;;;;12.10;6.27;;;8.00;99.90;;;;;;5052293;28;20036;-53
2024/02/01 03:30:44;;;;;;;14.63;7.40;;;8.00;99.90;;;;;;5052273;28;20443;-52
2024/02/01 03:33:09;;;;;;;12.67;6.00;;;8.00;99.90;;;;;;5052529;28;20033;-51
2024/02/01 03:35:35;;;;;;;13.23;6.53;;;8.10;99.90;;;;;;5052337;28;20036;-52
2024/02/01 03:38:01;;;;;;;9.43;5.37;;;8.10;99.90;;;;;;5052178;28;20394;-54
2024/02/01 03:40:27;;;;;;;10.70;6.03;;;8.10;99.90;;;;;;5052209;28;20045;-53
2024/02/01 03:42:53;;;;;;;11.13;5.57;;;8.10;99.90;;;;;;5052070;28;20116;-55
2024/02/01 03:45:19;;;;;;;9.30;5.30;;;8.10;99.90;;;;;;5051001;28;20086;-54
2024/02/01 03:47:47;;;;;;;8.87;5.20;;;8.10;99.90;;;;;;5052016;28;20037;-54
2024/02/01 03:50:13;;;;;;;11.33;5.57;;;8.10;99.90;;;;;;5052002;28;20068;-53
2024/02/01 03:52:43;;;;;;;10.80;5.17;;;8.10;99.90;;;;;;5051854;28;20068;-53
2024/02/01 03:55:18;;;;;;;9.73;5.40;;;8.10;99.90;;;;;;5052109;28;20059;-55
2024/02/01 03:57:47;;;;;;;14.53;5.87;;;8.10;99.90;;;;;;5051856;28;20025;-54
2024/02/01 04:00:34;;;;;;;10.77;5.50;;;8.10;99.90;;;;;;5051981;28;20025;-55
2024/02/01 04:03:03;;;;;;;11.73;5.37;;;8.00;99.90;;;;;;5052236;28;20048;-54
2024/02/01 04:05:29;;;;;;;;;;;8.10;99.90;;;;;;5052640;28;20489;-51
2024/02/01 04:07:55;;;;;;;7.93;4.63;;;8.20;99.90;;;;;;5050495;28;19954;-52
2024/02/01 04:10:21;;;;;;;10.33;5.20;;;8.20;99.90;;;;;;5051813;28;20107;-53
2024/02/01 04:12:47;;;;;;;10.80;5.37;;;8.20;99.90;;;;;;5051717;28;20540;-54
2024/02/01 04:15:13;;;;;;;11.50;5.30;;;8.20;99.90;;;;;;5051914;28;20029;-50
2024/02/01 04:17:39;;;;;;;9.43;4.87;;;8.20;99.90;;;;;;5051687;28;20021;-54
2024/02/01 04:20:05;;;;;;;9.77;5.23;;;8.20;99.90;;;;;;5051717;28;20508;-54
2024/02/01 04:22:34;;;;;;;10.37;5.40;;;8.20;99.90;;;;;;5051572;28;20044;-54
2024/02/01 04:25:00;;;;;;;11.52;5.88;;;8.20;99.90;;;;;;5051558;28;20553;-53
2024/02/01 04:27:25;;;;;;;11.17;5.57;;;8.30;99.90;;;;;;5051666;28;20136;-55
2024/02/01 04:29:51;;;;;;;11.87;5.50;;;8.20;99.90;;;;;;5051789;28;20031;-54
2024/02/01 04:32:16;;;;;;;10.00;5.47;;;8.20;99.90;;;;;;5051549;28;20067;-52
2024/02/01 04:34:42;;;;;;;10.97;5.90;;;8.30;99.90;;;;;;5053307;28;20116;-50
2024/02/01 04:37:12;;;;;;;12.33;6.27;;;8.30;99.90;;;;;;5056525;28;20025;-54
2024/02/01 04:39:37;;;;;;;10.00;5.70;;;8.30;99.90;;;;;;5055826;28;20021;-54
2024/02/01 04:42:15;;;;;;;10.17;5.77;;;8.20;99.90;;;;;;5055651;28;20458;-53
2024/02/01 04:44:46;;;;;;;12.17;6.07;;;8.20;99.90;;;;;;5055465;28;20033;-54
2024/02/01 04:47:12;;;;;;;11.63;5.37;;;8.30;99.90;;;;;;5055360;28;20119;-53
2024/02/01 04:49:38;;;;;;;10.83;5.93;;;8.40;99.90;;;;;;5055252;28;20454;-53
2024/02/01 04:52:05;;;;;;;14.57;6.80;;;8.40;99.90;;;;;;5055448;28;20056;-54
2024/02/01 04:54:34;;;;;;;11.57;5.43;;;8.30;99.90;;;;;;5055357;28;20096;-55
2024/02/01 04:57:03;;;;;;;12.60;5.83;;;8.30;99.90;;;;;;5055796;28;20376;-52
2024/02/01 04:59:29;;;;;;;10.90;6.07;;;8.30;99.90;;;;;;5055400;28;20371;-54
2024/02/01 05:01:55;;;;;;;11.13;5.70;;;8.30;99.90;;;;;;5055401;28;20029;-52
2024/02/01 05:04:21;;;;;;;13.43;6.70;;;8.30;99.90;;;;;;5055323;28;20401;-53
2024/02/01 05:06:47;;;;;;;12.77;6.37;;;8.30;99.90;;;;;;5055216;28;20049;-50
2024/02/01 05:09:25;;;;;;;11.83;6.67;;;8.40;99.90;;;;;;5055757;28;20077;-53
2024/02/01 05:11:52;;;;;;;13.97;6.60;;;8.40;99.90;;;;;;5055629;28;20041;-54
2024/02/01 05:14:19;;;;;;;12.83;6.73;;;8.30;99.90;;;;;;5055299;28;20466;-51
2024/02/01 05:16:45;;;;;;;10.77;5.97;;;8.40;99.90;;;;;;5054385;28;20040;-51
2024/02/01 05:19:10;;;;;;;12.57;6.77;;;8.40;99.90;;;;;;5055692;28;20033;-51
2024/02/01 05:21:36;;;;;;;14.57;6.80;;;8.30;99.90;;;;;;5056645;28;20033;-53
2024/02/01 05:24:02;;;;;;;12.23;6.87;;;8.30;99.90;;;;;;5056797;28;20063;-52
2024/02/01 05:26:27;;;;;;;13.93;6.30;;;8.30;99.90;;;;;;5056058;28;20045;-51
2024/02/01 05:28:53;;;;;;;13.73;6.63;;;8.30;99.90;;;;;;5056993;28;20033;-52
2024/02/01 05:31:21;;;;;;;14.77;6.87;;;8.30;99.90;;;;;;5056654;28;20125;-51
2024/02/01 05:33:47;;;;;;;11.95;7.20;;;8.30;99.90;;;;;;5055471;28;20037;-55
2024/02/01 05:36:13;;;;;;;13.73;7.50;;;8.30;99.90;;;;;;5054520;28;20211;-55
2024/02/01 05:38:39;;;;;;;13.50;7.17;;;8.30;99.90;;;;;;5054541;28;20079;-56
2024/02/01 05:41:11;;;;;;;13.77;7.47;;;8.30;99.90;;;;;;5054586;28;20390;-52
2024/02/01 05:43:38;;;;;;;12.90;6.70;;;8.30;99.90;;;;;;5054420;28;20482;-55
2024/02/01 05:46:09;;;;;;;16.57;7.80;;;8.40;99.90;;;;;;5053492;28;20128;-55
2024/02/01 05:48:36;;;;;;;14.63;7.00;;;8.40;99.90;;;;;;5054324;28;20087;-55
2024/02/01 05:51:02;;;;;;;16.03;7.27;;;8.30;99.90;;;;;;5054143;28;20029;-51
2024/02/01 05:53:27;;;;;;;17.27;8.33;;;8.30;99.90;;;;;;5054276;28;20040;-55
2024/02/01 05:55:53;;;;;;;19.17;8.90;;;8.30;99.90;;;;;;5054308;28;20107;-55
2024/02/01 05:58:19;;;;;;;14.53;7.90;;;8.30;99.90;;;;;;5052784;28;20351;-55
2024/02/01 06:00:45;;;;;;;16.70;8.70;;;8.20;99.90;;;;;;5054078;28;20025;-53
2024/02/01 06:03:10;;;;;;;16.33;7.43;;;8.20;99.90;;;;;;5054199;28;20079;-54
2024/02/01 06:05:36;;;;;;;19.97;8.27;;;8.20;99.90;;;;;;5054092;28;20032;-54
2024/02/01 06:08:01;;;;;;;18.87;7.17;;;8.20;99.90;;;;;;5053978;28;20069;-55
2024/02/01 06:10:27;;;;;;;18.63;8.40;;;8.20;99.90;;;;;;5052726;28;20033;-52
2024/02/01 06:12:53;;;;;;;17.10;7.47;;;8.20;99.90;;;;;;5053887;28;20025;-55
2024/02/01 06:15:19;;;;;;;16.03;7.40;;;8.20;99.90;;;;;;5054006;28;20028;-55
2024/02/01 06:17:45;;;;;;;11.33;6.40;;;8.20;99.90;;;;;;5053786;28;20036;-55
2024/02/01 06:20:11;;;;;;;19.53;6.60;;;8.20;99.90;;;;;;5053811;28;20036;-55
2024/02/01 06:22:37;;;;;;;15.30;6.50;;;8.20;99.90;;;;;;5053828;28;20536;-54
2024/02/01 06:25:04;;;;;;;18.17;5.57;;;8.20;99.90;;;;;;5053793;28;20037;-55
2024/02/01 06:27:29;;;;;;;14.57;4.47;;;8.10;99.90;;;;;;5053684;28;20033;-53
2024/02/01 06:29:58;;;;;;;7.53;2.60;;;8.00;99.90;;;;;;5053557;28;20430;-54
2024/02/01 06:32:24;;;;;;;15.95;2.30;;;7.90;99.90;;;;;;5053668;28;20104;-53
2024/02/01 06:34:57;;;;;;;8.17;1.87;;;7.80;99.90;;;;;;5053304;28;20061;-52
2024/02/01 06:37:28;;;;;;;8.87;2.30;;;7.60;99.90;;;;;;5053407;28;20040;-55
2024/02/01 06:40:10;;;;;;;4.23;1.27;;;7.60;99.90;;;;;;5053502;28;20032;-51
2024/02/01 06:42:54;;;;;;;11.07;1.40;;;7.40;99.90;;;;;;5053464;28;20033;-54
2024/02/01 06:45:28;;;;;;;5.57;1.30;;;7.30;99.90;;;;;;5053403;28;20065;-54
2024/02/01 06:48:09;;;;;;;12.20;1.90;;;7.20;99.90;;;;;;5053170;28;20033;-52
2024/02/01 06:53:32;;;;;;;11.63;2.00;;;7.00;99.90;;;;;;5053066;28;20028;-54
2024/02/01 06:56:00;;;;;;;10.83;1.67;;;6.80;99.90;;;;;;5053312;28;20393;-49
2024/02/01 07:01:33;;;;;;;7.90;1.60;;;6.60;99.90;;;;;;5051958;28;20033;-54
2024/02/01 07:04:20;;;;;;;10.45;1.42;;;6.60;99.90;;;;;;5052903;28;20033;-54
2024/02/01 07:07:05;;;;;;;4.80;1.40;;;6.50;99.90;;;;;;5052762;28;20079;-51
2024/02/01 07:09:36;;;;;;;10.67;2.07;;;6.40;99.90;;;;;;5052880;28;20044;-55
2024/02/01 07:12:10;;;;;;;10.17;1.80;;;6.30;99.90;;;;;;5052973;28;20041;-55
2024/02/01 07:14:39;;;;;;;19.60;2.30;;;6.20;99.90;;;;;;5052830;28;20064;-53
2024/02/01 07:20:03;;;;;;;6.20;2.33;;;6.10;99.90;;;;;;5052500;28;20028;-55
2024/02/01 07:22:35;;;;;;;11.47;1.77;;;6.00;99.90;;;;;;5052818;28;20036;-52
2024/02/01 07:25:23;;;;;;;15.30;2.10;;;5.90;99.90;;;;;;5052557;28;20127;-55
2024/02/01 07:58:14;;;;;;;8.97;1.13;;;5.70;99.90;;;;;;5052286;28;20021;-52
2024/02/01 08:00:46;;;;;;;10.80;1.45;;;5.70;99.90;;;;;;5052266;28;20029;-50
2024/02/01 08:08:38;;;;;;;13.57;1.43;;;5.80;99.90;;;;;;5052077;28;20486;-54
2024/02/01 08:11:04;;;;;;;13.40;1.40;;;5.80;99.90;;;;;;5052233;28;20025;-52
2024/02/01 08:13:31;;;;;;;6.77;2.73;;;5.80;99.90;;;;;;5052511;28;20489;-55
2024/02/01 08:15:57;;;;;;;11.50;1.63;;;5.80;99.90;;;;;;5050873;28;20033;-55
2024/02/01 08:18:26;;;;;;;7.87;1.50;;;5.80;99.90;;;;;;5050398;28;20060;-54
2024/02/01 08:20:52;;;;;;;14.50;2.37;;;5.90;99.90;;;;;;5051862;28;20059;-55
2024/02/01 08:23:19;;;;;;;10.07;1.60;;;5.90;99.90;;;;;;5051782;28;20068;-54
2024/02/01 08:25:49;;;;;;;11.63;2.17;;;5.90;99.90;;;;;;5051890;28;20037;-54
2024/02/01 08:28:15;;;;;;;9.60;1.50;;;5.90;99.90;;;;;;5062607;28;20029;-55
2024/02/01 08:30:45;;;;;;;15.17;1.50;;;5.90;99.90;;;;;;5066276;28;20041;-54
2024/02/01 08:33:20;;;;;;;15.80;4.50;;;6.00;99.90;;;;;;5062083;28;20041;-53
2024/02/01 08:35:47;;;;;;;9.60;1.77;;;6.00;99.90;;;;;;5052258;28;20555;-54
2024/02/01 08:38:13;;;;;;;19.83;3.27;;;6.10;99.90;;;;;;5051796;28;20445;-53
2024/02/01 08:40:40;;;;;;;13.70;2.40;;;6.20;99.90;;;;;;5050620;28;20448;-55
2024/02/01 08:43:10;;;;;;;11.37;2.47;;;6.20;99.90;;;;;;5051672;28;20044;-54
2024/02/01 08:45:38;;;;;;;15.33;1.90;;;6.30;99.90;;;;;;5051682;28;20116;-51
2024/02/01 08:48:06;;;;;;;12.97;2.10;;;6.40;99.90;;;;;;5051414;28;20033;-54
2024/02/01 08:50:34;;;;;;;10.97;1.93;;;6.50;99.90;;;;;;5051394;28;20058;-54
2024/02/01 08:53:00;;;;;;;13.90;2.10;;;6.60;99.90;;;;;;5051507;28;20370;-52
2024/02/01 08:55:27;;;;;;;15.53;2.07;;;6.70;99.90;;;;;;5051790;28;20025;-54
2024/02/01 08:57:54;;;;;;;8.43;1.67;;;6.80;99.90;;;;;;5051522;28;20052;-54
2024/02/01 09:00:26;;;;;;;11.50;2.33;;;6.90;99.90;;;;;;5050147;28;20025;-51
2024/02/01 09:03:05;;;;;;;14.73;2.10;;;7.10;99.90;;;;;;5051922;28;20112;-55
2024/02/01 09:05:40;;;;;;;14.83;2.70;;;7.40;99.90;;;;;;5051950;28;20060;-55
2024/02/01 09:08:06;;;;;;;12.17;2.50;;;7.80;99.90;;;;;;5051844;28;20044;-51
2024/02/01 09:10:33;;;;;;;13.37;1.97;;;8.30;99.90;;;;;;5051498;28;20017;-52
2024/02/01 09:12:59;;;;;;;9.63;2.20;;;9.00;99.90;;;;;;5051689;28;20398;-53
2024/02/01 09:15:26;;;;;;;14.13;2.27;;;9.70;99.90;;;;;;5051628;28;20032;-51
2024/02/01 09:17:52;;;;;;;10.03;2.40;;;10.30;99.90;;;;;;5051225;28;20079;-53
2024/02/01 09:20:18;;;;;;;9.60;2.47;;;10.60;99.90;;;;;;5050126;28;20033;-53
2024/02/01 09:22:50;;;;;;;12.65;2.20;;;10.90;99.90;;;;;;5036367;28;20474;-51
2024/02/01 09:25:17;;;;;;;11.10;2.08;;;11.50;99.90;;;;;;5053661;28;20040;-54
2024/02/01 09:27:46;;;;;;;13.20;2.38;;;12.00;99.90;;;;;;5054745;28;20060;-53
2024/02/01 09:30:11;;;;;;;9.32;2.42;;;12.60;99.90;;;;;;5054568;28;20035;-55
2024/02/01 09:32:40;;;;;;;9.98;1.65;;;13.40;99.90;;;;;;5053565;28;20108;-52
2024/02/01 09:35:06;;;;;;;13.45;2.70;;;13.70;99.90;;;;;;5054527;28;20032;-55
2024/02/01 09:37:32;;;;;;;12.43;2.22;;;14.10;99.90;;;;;;5055815;28;20021;-51
2024/02/01 09:40:00;;;;;;;13.70;2.28;;;14.70;99.90;;;;;;5055152;28;20128;-55
2024/02/01 09:42:26;;;;;;;9.65;2.33;;;15.00;99.90;;;;;;5054891;28;20029;-51
2024/02/01 09:44:56;;;;;;;11.52;2.03;;;15.40;99.90;;;;;;5054433;28;20508;-51
2024/02/01 09:47:24;;;;;;;11.60;2.55;;;16.10;98.30;;;;;;5054356;28;20494;-51
2024/02/01 09:49:53;;;;;;;8.95;1.80;;;16.40;97.60;;;;;;5054298;28;20041;-51
2024/02/01 09:52:20;;;;;;;8.85;2.15;;;16.90;96.10;;;;;;5054506;28;20079;-53
2024/02/01 09:54:46;;;;;;;8.48;2.15;;;17.00;96.50;;;;;;5054406;28;20393;-54
2024/02/01 09:57:16;;;;;;;6.35;2.20;;;17.30;95.70;;;;;;5052845;28;20025;-54
2024/02/01 09:59:42;;;;;;;8.15;1.83;;;17.40;94.80;;;;;;5052953;28;20029;-54
2024/02/01 10:02:10;;;;;;;11.63;2.10;;;17.40;94.20;;;;;;5054176;28;20147;-51
2024/02/01 10:04:36;;;;;;;11.80;3.00;;;17.80;93.10;;;;;;5054256;28;20025;-53
2024/02/01 10:07:02;;;;;;;9.80;2.15;;;18.10;92.50;;;;;;5054127;28;20493;-49
2024/02/01 10:09:28;;;;;;;9.98;2.83;;;18.20;91.40;;;;;;5054000;28;20553;-51
2024/02/01 10:11:55;;;;;;;12.13;2.17;;;18.10;91.50;;;;;;5053326;28;20037;-52
2024/02/01 10:14:34;;;;;;;7.45;1.70;;;18.20;90.60;;;;;;5054001;28;20087;-53
2024/02/01 10:17:05;;;;;;;7.93;1.60;;;18.30;90.20;;;;;;5053897;28;20040;-52
2024/02/01 10:19:32;;;;;;;10.07;2.20;;;18.00;90.70;;;;;;5053720;28;20539;-50
2024/02/01 10:22:08;;;;;;;9.50;2.17;;;18.40;89.80;;;;;;5053733;28;20025;-50
2024/02/01 10:24:45;;;;;;;10.75;2.58;;;18.60;89.40;;;;;;5053629;28;20071;-50
2024/02/01 10:27:12;;;;;;;11.68;2.38;;;18.50;89.70;;;;;;5053608;28;20043;-54
2024/02/01 10:29:42;;;;;;;9.02;2.38;;;18.50;89.60;;;;;;5053663;28;20159;-51
2024/02/01 10:32:14;;;;;;;7.80;1.98;;;18.30;87.70;;;;;;5053593;28;20237;-50
2024/02/01 10:34:52;;;;;;;8.23;1.95;;;17.90;90.10;;;;;;5053511;28;20033;-53
2024/02/01 10:37:21;;;;;;;11.10;2.40;;;17.80;89.70;;;;;;5053565;28;20448;-52
2024/02/01 10:39:52;;;;;;;7.05;1.85;;;17.60;90.10;;;;;;5053489;28;20493;-50
2024/02/01 10:42:22;;;;;;;10.82;3.20;;;18.00;89.80;;;;;;5053478;28;20497;-53
2024/02/01 10:44:51;;;;;;;9.27;2.40;;;18.90;85.50;;;;;;5053503;28;20121;-53
2024/02/01 10:47:21;;;;;;;10.15;1.85;;;19.00;87.90;;;;;;5053396;28;20029;-51
2024/02/01 10:49:54;;;;;;;11.30;2.17;;;19.20;85.10;;;;;;5053431;28;20486;-52
2024/02/01 10:52:21;;;;;;;14.68;2.50;;;18.80;86.40;;;;;;5053285;28;20044;-52
2024/02/01 10:54:49;;;;;;;11.40;2.03;;;18.70;87.30;;;;;;5053200;28;20068;-53
2024/02/01 10:57:17;;;;;;;10.52;1.90;;;18.30;86.50;;;;;;5053175;28;20036;-52
2024/02/01 10:59:45;;;;;;;10.32;2.33;;;18.20;85.80;;;;;;5053177;28;20024;-53
2024/02/01 11:02:11;;;;;;;8.85;1.67;;;18.20;86.20;;;;;;5053291;28;20120;-51
2024/02/01 11:04:38;;;;;;;8.30;2.30;;;18.70;85.50;;;;;;5052925;28;20025;-54
2024/02/01 11:07:05;;;;;;;10.45;1.80;;;19.00;85.30;;;;;;5053338;28;20033;-51
2024/02/01 11:09:31;;;;;;;8.50;2.20;;;19.10;81.70;;;;;;5051764;28;20036;-54
2024/02/01 11:11:57;;;;;;;8.80;1.88;;;18.50;84.00;;;;;;5052932;28;20029;-54
2024/02/01 11:14:32;;;;;;;8.07;1.90;;;17.90;85.80;;;;;;5052835;28;20075;-53
2024/02/01 11:17:01;;;;;;;9.85;2.25;;;17.80;87.40;;;;;;5052911;28;20033;-54
2024/02/01 11:19:34;;;;;;;8.50;2.20;;;17.80;86.90;;;;;;5052837;28;20039;-54
2024/02/01 11:22:04;;;;;;;9.38;2.13;;;17.70;87.50;;;;;;5052622;28;20037;-54
2024/02/01 11:24:35;;;;;;;8.40;2.22;;;17.50;86.10;;;;;;5052394;28;20132;-53
2024/02/01 11:27:15;;;;;;;9.10;2.15;;;16.70;88.20;;;;;;5052948;28;20486;-50
2024/02/01 11:29:46;;;;;;;10.30;2.13;;;16.30;90.60;;;;;;5052683;28;20033;-50
2024/02/01 11:32:20;;;;;;;8.98;2.20;;;17.00;89.20;;;;;;5052596;28;20028;-50
2024/02/01 11:34:50;;;;;;;11.15;2.20;;;18.10;88.60;;;;;;5052918;28;20465;-51
2024/02/01 11:37:17;;;;;;;8.93;2.00;;;19.30;84.00;;;;;;5051506;28;20060;-53
2024/02/01 11:39:45;;;;;;;8.43;2.15;;;19.90;80.30;;;;;;5053264;28;20024;-53
2024/02/01 11:42:12;;;;;;;9.45;2.20;;;19.90;79.70;;;;;;5053409;28;20032;-50
2024/02/01 11:44:40;;;;;;;9.00;1.88;;;20.30;78.30;;;;;;5052731;28;20036;-50
2024/02/01 11:47:06;;;;;;;11.25;3.40;;;20.40;76.60;;;;;;5053962;28;20033;-50
2024/02/01 11:49:36;;;;;;;11.38;3.40;;;20.10;78.30;;;;;;5052887;28;20036;-51
2024/02/01 11:52:22;;;;;;;12.70;3.55;;;20.40;78.30;;;;;;5053390;28;20063;-50
2024/02/01 11:54:52;;;;;;;10.02;2.53;;;20.90;76.70;;;;;;5053482;28;20393;-51
2024/02/01 11:57:22;;;;;;;8.68;2.00;;;20.30;74.70;;;;;;5053213;28;20080;-52
2024/02/01 11:59:50;;;;;;;9.15;2.47;;;18.90;78.00;;;;;;5052032;28;20402;-54
2024/02/01 12:02:17;;;;;;;10.50;2.25;;;17.90;81.00;;;;;;5052140;28;20036;-53
2024/02/01 12:04:46;;;;;;;8.65;1.67;;;17.10;85.30;;;;;;5050497;28;20470;-53
2024/02/01 12:07:20;;;;;;;8.32;1.80;;;16.00;85.20;;;;;;5050360;28;20505;-51
2024/02/01 12:09:49;;;;;;;10.43;1.83;;;14.70;90.20;;;;;;5050571;28;20079;-51
2024/02/01 12:12:17;;;;;;;9.10;2.05;;;13.90;91.60;;;;;;5050599;28;20498;-53
2024/02/01 12:14:43;;;;;;;15.45;2.55;;;13.10;93.40;;;;;;5051842;28;20033;-51
2024/02/01 12:17:13;;;;;;;12.68;1.98;;;12.50;96.10;;;;;;5051634;28;20040;-52
2024/02/01 12:19:39;;;;;;;9.63;1.98;;;12.30;97.00;;;;;;5051566;28;20025;-52
2024/02/01 12:22:08;;;;;;;13.40;2.28;;;12.70;97.00;;;;;;5052083;28;20031;-50
2024/02/01 12:24:35;;;;;;;11.45;2.08;;;13.20;96.50;;;;;;5051722;28;20075;-54
2024/02/01 12:27:06;;;;;;;9.27;1.95;;;13.10;95.80;;;;;;5051916;28;20043;-51
2024/02/01 12:29:32;;;;;;;6.78;1.73;;;12.80;95.40;;;;;;5051764;28;20060;-53
2024/02/01 12:31:57;;;;;;;13.77;1.92;;;13.20;96.30;;;;;;5051666;28;20080;-52
2024/02/01 12:34:24;;;;;;;8.82;1.80;;;14.30;95.10;;;;;;5051540;28;20087;-54
2024/02/01 12:36:50;;;;;;;6.43;1.48;;;14.80;92.10;;;;;;5051619;28;20035;-49
2024/02/01 12:39:16;;;;;;;12.80;2.22;;;14.50;92.40;;;;;;5051569;28;20119;-51
2024/02/01 12:41:45;;;;;;;9.27;1.40;;;14.20;93.00;;;;;;5051695;28;20083;-53
2024/02/01 12:44:13;;;;;;;14.82;2.42;;;14.10;93.00;;;;;;5050365;28;20029;-53
2024/02/01 12:46:39;;;;;;;9.55;2.15;;;14.20;93.10;;;;;;5051548;28;20040;-53
2024/02/01 12:49:05;;;;;;;8.35;1.90;;;14.70;92.70;;;;;;5051524;28;20032;-53
2024/02/01 12:51:30;;;;;;;11.95;2.00;;;15.60;92.20;;;;;;5052055;28;20033;-52
2024/02/01 12:53:58;;;;;;;13.90;2.00;;;16.50;90.70;;;;;;5051476;28;20060;-50
2024/02/01 12:56:24;;;;;;;8.18;1.70;;;17.10;86.70;;;;;;5054164;28;20039;-52
2024/02/01 12:58:51;;;;;;;6.68;1.95;;;17.60;86.10;;;;;;5055419;28;20025;-50
2024/02/01 13:01:17;;;;;;;11.65;2.22;;;18.60;81.90;;;;;;5055263;28;20048;-54
2024/02/01 13:03:45;;;;;;;11.63;1.90;;;19.60;79.80;;;;;;5055369;28;20583;-50
2024/02/01 13:06:14;;;;;;;10.52;2.00;;;19.70;75.70;;;;;;5055179;28;20033;-50
2024/02/01 13:08:40;;;;;;;9.68;2.30;;;19.20;75.20;;;;;;5055294;28;20068;-51
2024/02/01 13:11:10;;;;;;;9.95;1.95;;;18.10;78.70;;;;;;5055277;28;20040;-51
2024/02/01 13:13:36;;;;;;;11.23;2.00;;;17.10;82.20;;;;;;5053791;28;20036;-54
2024/02/01 13:16:03;;;;;;;10.32;2.30;;;16.20;84.70;;;;;;5055077;28;20024;-51
2024/02/01 13:18:28;;;;;;;7.55;1.98;;;15.20;89.10;;;;;;5053677;28;20545;-54
2024/02/01 13:20:57;;;;;;;9.18;2.30;;;14.10;91.10;;;;;;5056073;28;20121;-53
2024/02/01 13:23:23;;;;;;;10.82;2.00;;;13.60;92.70;;;;;;5055843;28;20035;-53
2024/02/01 13:25:50;;;;;;;8.48;2.30;;;13.30;94.40;;;;;;5055831;28;20040;-51
2024/02/01 13:28:16;;;;;;;13.38;2.20;;;13.20;94.80;;;;;;5055178;28;20037;-53
2024/02/01 13:30:44;;;;;;;10.48;2.15;;;13.20;94.60;;;;;;5057465;28;20466;-52
2024/02/01 13:33:10;;;;;;;10.93;1.95;;;13.30;94.90;;;;;;5054848;28;20039;-50
2024/02/01 13:35:37;;;;;;;11.35;2.35;;;13.80;94.50;;;;;;5054733;28;20033;-51